Time;durP1;ratioP1;P1;durP2;ratioP2;P2;SDS_P1;SDS_P2;PMS_P1;PMS_P2;Temp;Humidity;BMP_temperature;BMP_pressure;BME280_temperature;BME280_humidity;BME280_pressure;Samples;Min_cycle;Max_cycle;Signal;HPM_P1;HPM_P2
2021/01/06 00:02:01;;;;;;;1999.90;999.90;;;4.00;99.90;;;;;;4774519;30;20477;-96
2021/01/06 00:04:31;;;;;;;1999.90;999.90;;;4.00;99.90;;;;;;4774004;30;20472;-96
2021/01/06 00:06:59;;;;;;;1999.90;999.90;;;3.90;99.90;;;;;;4773812;30;20068;-96
2021/01/06 00:09:27;;;;;;;1999.90;999.90;;;3.90;99.90;;;;;;4773293;30;20520;-96
2021/01/06 00:11:57;;;;;;;1999.90;999.90;;;4.00;99.90;;;;;;4772949;30;20058;-96
2021/01/06 00:14:32;;;;;;;1999.90;999.90;;;4.00;99.90;;;;;;4772254;30;20052;-96
2021/01/06 00:17:02;;;;;;;1999.90;999.90;;;3.90;99.90;;;;;;4775199;30;20071;-96
2021/01/06 00:19:35;;;;;;;1999.90;999.90;;;3.90;99.90;;;;;;4773665;30;20055;-96
2021/01/06 00:22:04;;;;;;;1999.90;999.90;;;4.00;99.90;;;;;;4773474;30;20383;-96
2021/01/06 00:24:42;;;;;;;1999.90;999.90;;;4.00;99.90;;;;;;4772787;30;20067;-96
2021/01/06 00:27:09;;;;;;;1999.90;999.90;;;4.00;99.90;;;;;;4773325;30;20499;-96
2021/01/06 00:29:39;;;;;;;1999.90;999.90;;;4.00;99.90;;;;;;4773278;30;20110;-95
2021/01/06 00:32:08;;;;;;;1999.90;999.90;;;3.90;99.90;;;;;;4772975;30;20403;-95
2021/01/06 00:34:36;;;;;;;1999.90;999.90;;;3.90;99.90;;;;;;4772829;30;20110;-96
2021/01/06 00:37:07;;;;;;;1999.90;999.90;;;3.90;99.90;;;;;;4773929;30;20066;-96
2021/01/06 00:39:39;;;;;;;1999.90;999.90;;;3.90;99.90;;;;;;4772448;30;20109;-96
2021/01/06 00:42:08;;;;;;;1999.90;999.90;;;3.80;99.90;;;;;;4772164;30;20059;-96
2021/01/06 00:44:37;;;;;;;1999.90;999.90;;;3.90;99.90;;;;;;4772290;30;20082;-96
2021/01/06 00:47:06;;;;;;;1999.90;999.90;;;3.90;99.90;;;;;;4772133;30;20071;-96
2021/01/06 00:49:37;;;;;;;1999.90;999.90;;;3.80;99.90;;;;;;4774243;30;20055;-96
2021/01/06 00:52:06;;;;;;;1999.90;999.90;;;3.90;99.90;;;;;;4771894;30;20051;-96
2021/01/06 00:54:34;;;;;;;1999.90;999.90;;;3.80;99.90;;;;;;4773396;30;20095;-96
2021/01/06 00:57:17;;;;;;;1999.90;999.90;;;3.90;99.90;;;;;;4772769;30;20056;-96
2021/01/06 00:59:47;;;;;;;1999.90;999.90;;;3.80;99.90;;;;;;4771267;30;20071;-96
2021/01/06 01:02:16;;;;;;;1999.90;999.90;;;3.80;99.90;;;;;;4777702;30;20496;-95
2021/01/06 01:04:45;;;;;;;1999.90;999.90;;;3.80;99.90;;;;;;4779138;30;20059;-96
2021/01/06 01:07:16;;;;;;;1999.90;999.90;;;3.70;99.90;;;;;;4778154;30;20063;-96
2021/01/06 01:09:46;;;;;;;1999.90;999.90;;;3.70;99.90;;;;;;4775447;30;20407;-96
2021/01/06 01:12:14;;;;;;;1999.90;999.90;;;3.60;99.90;;;;;;4772539;30;20138;-96
2021/01/06 01:14:41;;;;;;;1999.90;999.90;;;3.70;99.90;;;;;;4772651;30;20059;-96
2021/01/06 01:17:09;;;;;;;1999.90;999.90;;;3.70;99.90;;;;;;4772585;30;20067;-96
2021/01/06 01:19:37;;;;;;;1999.90;999.90;;;3.70;99.90;;;;;;4771609;30;20063;-96
2021/01/06 01:22:04;;;;;;;1999.90;999.90;;;3.60;99.90;;;;;;4771854;30;20053;-96
2021/01/06 01:24:32;;;;;;;1999.90;999.90;;;3.60;99.90;;;;;;4772164;30;20064;-95
2021/01/06 01:26:59;;;;;;;1999.90;999.90;;;3.60;99.90;;;;;;4772462;30;20056;-96
2021/01/06 01:29:29;;;;;;;1999.90;999.90;;;3.60;99.90;;;;;;4771841;30;20541;-96
2021/01/06 01:32:01;;;;;;;1999.90;999.90;;;3.50;99.90;;;;;;4771343;30;20077;-96
2021/01/06 01:34:30;;;;;;;1999.90;999.90;;;3.60;99.90;;;;;;4772199;30;20493;-95
2021/01/06 01:37:01;;;;;;;1999.90;999.90;;;3.50;99.90;;;;;;4772115;30;20070;-96
2021/01/06 01:39:30;;;;;;;1999.90;999.90;;;3.50;99.90;;;;;;4772065;30;20066;-96
2021/01/06 01:41:59;;;;;;;1999.90;999.90;;;3.50;99.90;;;;;;4771561;30;20079;-96
2021/01/06 01:44:28;;;;;;;1999.90;999.90;;;3.50;99.90;;;;;;4771943;30;20369;-96
2021/01/06 01:47:07;;;;;;;1999.90;999.90;;;3.50;99.90;;;;;;4771555;30;20052;-96
2021/01/06 01:49:42;;;;;;;1999.90;999.90;;;3.40;99.90;;;;;;4771996;30;20069;-96
2021/01/06 01:52:24;;;;;;;1999.90;999.90;;;3.40;99.90;;;;;;4771388;30;20051;-95
2021/01/06 01:54:54;;;;;;;1999.90;999.90;;;3.50;99.90;;;;;;4771460;30;20090;-95
2021/01/06 01:57:29;;;;;;;1999.90;999.90;;;3.40;99.90;;;;;;4771494;30;20090;-96
2021/01/06 02:00:04;;;;;;;1999.90;999.90;;;3.40;99.90;;;;;;4771714;30;20075;-96
2021/01/06 02:02:43;;;;;;;1999.90;999.90;;;3.30;99.90;;;;;;4771544;30;20073;-96
2021/01/06 02:05:22;;;;;;;1999.90;999.90;;;3.30;99.90;;;;;;4772100;30;20075;-96
2021/01/06 02:07:58;;;;;;;1999.90;999.90;;;3.30;99.90;;;;;;4772051;30;20060;-95
2021/01/06 02:10:35;;;;;;;1999.90;999.90;;;3.30;99.90;;;;;;4775952;30;20139;-96
2021/01/06 02:13:10;;;;;;;1999.90;999.90;;;3.30;99.90;;;;;;4775289;30;20055;-95
2021/01/06 02:15:43;;;;;;;1999.90;999.90;;;3.30;99.90;;;;;;4785201;30;20093;-96
2021/01/06 02:18:12;;;;;;;1999.90;999.90;;;3.30;99.90;;;;;;4787711;30;20056;-95
2021/01/06 02:21:04;;;;;;;1999.90;999.90;;;3.30;99.90;;;;;;4786338;30;20063;-96
2021/01/06 02:23:31;;;;;;;1999.90;999.90;;;3.20;99.90;;;;;;4780340;30;20063;-96
2021/01/06 02:25:59;;;;;;;1999.90;999.90;;;3.20;99.90;;;;;;4775314;30;20080;-96
2021/01/06 02:28:28;;;;;;;1999.90;999.90;;;3.20;99.90;;;;;;4774829;30;20097;-96
2021/01/06 02:30:58;;;;;;;1999.90;999.90;;;3.20;99.90;;;;;;4774908;30;20056;-96
2021/01/06 02:33:28;;;;;;;1999.90;999.90;;;3.10;99.90;;;;;;4775450;30;20489;-96
2021/01/06 02:35:59;;;;;;;1999.90;999.90;;;3.10;99.90;;;;;;4774559;30;20112;-96
2021/01/06 02:38:32;;;;;;;1999.90;999.90;;;3.10;99.90;;;;;;4775295;30;20059;-96
2021/01/06 02:41:03;;;;;;;1999.90;999.90;;;3.10;99.90;;;;;;4774348;30;20518;-96
2021/01/06 02:43:36;;;;;;;1999.90;999.90;;;3.10;99.90;;;;;;4778603;30;20090;-96
2021/01/06 02:46:07;;;;;;;1999.90;999.90;;;3.10;99.90;;;;;;4784688;30;20134;-95
2021/01/06 02:48:37;;;;;;;1999.90;999.90;;;3.10;99.90;;;;;;4779044;30;20109;-96
2021/01/06 02:51:11;;;;;;;1999.90;999.90;;;3.10;99.90;;;;;;4774656;30;20058;-96
2021/01/06 02:53:44;;;;;;;1999.90;999.90;;;3.10;99.90;;;;;;4774353;30;20062;-96
2021/01/06 02:56:14;;;;;;;1999.90;999.90;;;3.10;99.90;;;;;;4775285;30;20068;-96
2021/01/06 02:58:45;;;;;;;1999.90;999.90;;;3.10;99.90;;;;;;4774651;30;20078;-96
2021/01/06 03:01:17;;;;;;;1999.90;999.90;;;3.10;99.90;;;;;;4775068;30;20062;-96
2021/01/06 03:03:46;;;;;;;1999.90;999.90;;;3.20;99.90;;;;;;4774886;30;20062;-96
2021/01/06 03:06:24;;;;;;;1999.90;999.90;;;3.10;99.90;;;;;;4773478;30;20064;-96
2021/01/06 03:08:56;;;;;;;1999.90;999.90;;;3.10;99.90;;;;;;4773635;30;20083;-95
2021/01/06 03:11:28;;;;;;;1999.90;999.90;;;3.10;99.90;;;;;;4774151;30;20052;-96
2021/01/06 03:13:56;;;;;;;1999.90;999.90;;;3.10;99.90;;;;;;4774301;30;20408;-95
2021/01/06 03:16:31;;;;;;;1999.90;999.90;;;3.10;99.90;;;;;;4773533;30;20071;-94
2021/01/06 03:18:59;;;;;;;1999.90;999.90;;;3.20;99.90;;;;;;4773861;30;20119;-96
2021/01/06 03:21:27;;;;;;;1999.90;999.90;;;3.20;99.90;;;;;;4774603;30;20052;-96
2021/01/06 03:23:56;;;;;;;1999.90;999.90;;;3.10;99.90;;;;;;4773758;30;20119;-96
2021/01/06 03:26:27;;;;;;;1999.90;999.90;;;3.20;99.90;;;;;;4774943;30;20121;-96
2021/01/06 03:28:55;;;;;;;1999.90;999.90;;;3.10;99.90;;;;;;4774252;30;20117;-96
2021/01/06 03:31:38;;;;;;;;;;;;;;;;;;;;;
2021/01/06 03:34:16;;;;;;;1999.90;999.90;;;3.10;99.90;;;;;;4774042;30;20066;-96
2021/01/06 03:36:48;;;;;;;1999.90;999.90;;;3.20;99.90;;;;;;4774386;30;20055;-96
2021/01/06 03:39:23;;;;;;;1999.90;999.90;;;3.20;99.90;;;;;;4774868;30;20066;-95
2021/01/06 03:41:50;;;;;;;1999.90;999.90;;;3.20;99.90;;;;;;4774755;30;20078;-96
2021/01/06 03:44:23;;;;;;;1999.90;999.90;;;3.20;99.90;;;;;;4774811;30;20059;-96
2021/01/06 03:46:59;;;;;;;1999.90;999.90;;;3.20;99.90;;;;;;4774416;30;20082;-96
2021/01/06 03:49:50;;;;;;;1999.90;999.90;;;3.20;99.90;;;;;;4773796;30;20514;-96
2021/01/06 03:52:28;;;;;;;1999.90;999.90;;;3.10;99.90;;;;;;4772247;30;20058;-96
2021/01/06 03:55:03;;;;;;;1999.90;999.90;;;3.10;99.90;;;;;;4773642;30;20055;-95
2021/01/06 03:57:34;;;;;;;1999.90;999.90;;;3.00;99.90;;;;;;4773496;30;20083;-95
2021/01/06 04:00:04;;;;;;;1999.90;999.90;;;3.00;99.90;;;;;;4773008;30;20075;-95
2021/01/06 04:02:41;;;;;;;1999.90;999.90;;;3.00;99.90;;;;;;4772462;30;20060;-95
2021/01/06 04:05:14;;;;;;;;;;;3.00;99.90;;;;;;4772668;30;20055;-96
2021/01/06 04:07:46;;;;;;;1999.90;999.90;;;2.90;99.90;;;;;;4772232;30;20050;-96
2021/01/06 04:10:20;;;;;;;1999.90;999.90;;;2.90;99.90;;;;;;4772127;30;20063;-95
2021/01/06 04:12:48;;;;;;;1999.90;999.90;;;2.90;99.90;;;;;;4772304;30;20052;-96
2021/01/06 04:15:20;;;;;;;1999.90;999.90;;;2.90;99.90;;;;;;4772429;30;20163;-95
2021/01/06 04:17:53;;;;;;;1999.90;999.90;;;2.90;99.90;;;;;;4772718;30;20055;-96
2021/01/06 04:20:30;;;;;;;1999.90;999.90;;;3.00;99.90;;;;;;4771938;30;20144;-96
2021/01/06 04:23:01;;;;;;;1999.90;999.90;;;3.00;99.90;;;;;;4772348;30;20192;-96
2021/01/06 04:25:31;;;;;;;1999.90;999.90;;;2.90;99.90;;;;;;4772280;30;20055;-96
2021/01/06 04:28:01;;;;;;;1999.90;999.90;;;2.90;99.90;;;;;;4773419;30;20063;-95
2021/01/06 04:30:36;;;;;;;1999.90;999.90;;;2.90;99.90;;;;;;4771957;30;20174;-96
2021/01/06 04:33:07;;;;;;;1999.90;999.90;;;2.90;99.90;;;;;;4771804;30;20052;-96
2021/01/06 04:35:35;;;;;;;1999.90;999.90;;;2.90;99.90;;;;;;4772357;30;20118;-95
2021/01/06 04:38:04;;;;;;;1999.90;999.90;;;2.90;99.90;;;;;;4772353;30;20068;-96
2021/01/06 04:40:39;;;;;;;1999.90;999.90;;;2.90;99.90;;;;;;4765194;30;20492;-96
2021/01/06 04:43:16;;;;;;;1999.90;999.90;;;2.90;99.90;;;;;;4754575;30;20060;-96
2021/01/06 04:45:49;;;;;;;1999.90;999.90;;;3.00;99.90;;;;;;4754150;30;20056;-96
2021/01/06 04:48:44;;;;;;;1999.90;999.90;;;3.00;99.90;;;;;;4754073;30;20176;-95
2021/01/06 04:51:52;;;;;;;1999.90;999.90;;;3.00;99.90;;;;;;4753690;30;20070;-95
2021/01/06 04:54:54;;;;;;;1999.90;999.90;;;3.00;99.90;;;;;;4741974;30;20062;-95
2021/01/06 04:57:42;;;;;;;1999.90;999.90;;;3.10;99.90;;;;;;4760074;30;20082;-96
2021/01/06 05:00:20;;;;;;;1999.90;999.90;;;3.00;99.90;;;;;;4760896;30;20060;-95
2021/01/06 05:03:19;;;;;;;1999.90;999.90;;;3.10;99.90;;;;;;4772109;30;20511;-95
2021/01/06 05:06:24;;;;;;;1999.90;999.90;;;3.00;99.90;;;;;;4772156;30;20063;-94
2021/01/06 05:08:56;;;;;;;1999.90;999.90;;;3.00;99.90;;;;;;4767876;30;20093;-95
2021/01/06 05:11:28;;;;;;;1999.90;999.90;;;3.00;99.90;;;;;;4767402;30;20060;-95
2021/01/06 05:14:03;;;;;;;1999.90;999.90;;;2.90;99.90;;;;;;4765262;30;20052;-94
2021/01/06 05:16:38;;;;;;;1999.90;999.90;;;3.00;99.90;;;;;;4768980;30;20056;-95
2021/01/06 05:19:13;;;;;;;1999.90;999.90;;;2.90;99.90;;;;;;4759372;30;20063;-94
2021/01/06 05:21:42;;;;;;;1999.90;999.90;;;2.90;99.90;;;;;;4765900;30;20075;-95
2021/01/06 05:24:23;;;;;;;1999.90;999.90;;;2.90;99.90;;;;;;4770974;30;20063;-94
2021/01/06 05:26:56;;;;;;;1999.90;999.90;;;2.90;99.90;;;;;;4766234;30;20066;-95
2021/01/06 05:29:30;;;;;;;1999.90;999.90;;;2.90;99.90;;;;;;4771044;30;20400;-94
2021/01/06 05:32:05;;;;;;;1999.90;999.90;;;2.90;99.90;;;;;;4771245;30;20056;-95
2021/01/06 05:34:37;;;;;;;1999.90;999.90;;;2.90;99.90;;;;;;4758240;30;20052;-95
2021/01/06 05:37:18;;;;;;;1999.90;999.90;;;2.90;99.90;;;;;;4771516;30;20086;-95
2021/01/06 05:39:45;;;;;;;1999.90;999.90;;;2.90;99.90;;;;;;4771420;30;20135;-95
2021/01/06 05:42:20;;;;;;;1999.90;999.90;;;2.90;99.90;;;;;;4771318;30;20056;-95
2021/01/06 05:44:52;;;;;;;1999.90;999.90;;;3.00;99.90;;;;;;4774578;30;20063;-95
2021/01/06 05:47:29;;;;;;;1999.90;999.90;;;2.90;99.90;;;;;;4774274;30;20085;-95
2021/01/06 05:50:03;;;;;;;1999.90;999.90;;;2.90;99.90;;;;;;4774147;30;20071;-94
2021/01/06 05:52:35;;;;;;;1999.90;999.90;;;2.90;99.90;;;;;;4773988;30;20060;-95
2021/01/06 05:55:12;;;;;;;1999.90;999.90;;;2.90;99.90;;;;;;4773294;30;20314;-95
2021/01/06 05:57:45;;;;;;;1999.90;999.90;;;3.00;99.90;;;;;;4764156;30;20108;-95
2021/01/06 06:00:28;;;;;;;1999.90;999.90;;;2.90;99.90;;;;;;4774391;30;20063;-95
2021/01/06 06:03:15;;;;;;;1999.90;999.90;;;2.90;99.90;;;;;;4774151;30;20108;-94
2021/01/06 06:05:56;;;;;;;1999.90;999.90;;;2.90;99.90;;;;;;4783861;30;20059;-95
2021/01/06 06:08:42;;;;;;;1999.90;999.90;;;3.00;99.90;;;;;;4774143;30;20090;-95
2021/01/06 06:11:42;;;;;;;1999.90;999.90;;;3.00;99.90;;;;;;4773589;30;20091;-96
2021/01/06 06:14:42;;;;;;;1999.90;999.90;;;3.10;99.90;;;;;;4771326;30;20063;-94
2021/01/06 06:17:20;;;;;;;1999.90;999.90;;;3.00;99.90;;;;;;4751298;30;20056;-94
2021/01/06 06:20:09;;;;;;;1999.90;999.90;;;3.00;99.90;;;;;;4745925;30;20060;-95
2021/01/06 06:22:42;;;;;;;1999.90;999.90;;;3.00;99.90;;;;;;4755549;30;20056;-95
2021/01/06 06:25:24;;;;;;;1999.90;999.90;;;3.00;99.90;;;;;;4746284;30;20060;-95
2021/01/06 06:28:10;;;;;;;1999.90;999.90;;;3.00;99.90;;;;;;4755635;30;20083;-95
2021/01/06 06:30:51;;;;;;;1999.90;999.90;;;2.90;99.90;;;;;;4755681;30;20098;-95
2021/01/06 06:33:26;;;;;;;1999.90;999.90;;;2.90;99.90;;;;;;4755544;30;20052;-95
2021/01/06 06:35:55;;;;;;;;;;;3.00;99.90;;;;;;4756012;30;20063;-94
2021/01/06 06:38:37;;;;;;;1999.90;999.90;;;2.90;99.90;;;;;;4756813;30;20258;-96
2021/01/06 06:41:08;;;;;;;1999.90;999.90;;;2.90;99.90;;;;;;4758085;30;20090;-96
2021/01/06 06:43:41;;;;;;;1999.90;999.90;;;2.90;99.90;;;;;;4761002;30;20052;-96
2021/01/06 06:46:19;;;;;;;1999.90;999.90;;;3.00;99.90;;;;;;4770011;30;20085;-95
2021/01/06 06:49:17;;;;;;;1999.90;999.90;;;3.00;99.90;;;;;;4769703;30;20124;-96
2021/01/06 06:51:50;;;;;;;1999.90;999.90;;;3.10;99.90;;;;;;4768919;30;20059;-95
2021/01/06 06:54:29;;;;;;;1999.90;999.90;;;3.00;99.90;;;;;;4756800;30;20513;-95
2021/01/06 06:57:01;;;;;;;1999.90;999.90;;;3.00;99.90;;;;;;4756089;30;20492;-96
2021/01/06 06:59:37;;;;;;;1999.90;999.90;;;3.10;99.90;;;;;;4757063;30;20393;-96
2021/01/06 07:02:05;;;;;;;1999.90;999.90;;;3.00;99.90;;;;;;4756046;30;20409;-96
2021/01/06 07:04:42;;;;;;;1999.90;999.90;;;3.00;99.90;;;;;;4756571;30;20500;-95
2021/01/06 07:07:33;;;;;;;1999.90;999.90;;;3.00;99.90;;;;;;4756576;30;20080;-96
2021/01/06 07:10:16;;;;;;;1999.90;999.90;;;3.00;99.90;;;;;;4756249;30;20146;-95
2021/01/06 07:12:46;;;;;;;1999.90;999.90;;;3.00;99.90;;;;;;4754976;30;20052;-94
2021/01/06 07:15:29;;;;;;;1999.90;999.90;;;2.90;99.90;;;;;;4759327;30;20491;-95
2021/01/06 07:18:02;;;;;;;1999.90;999.90;;;3.00;99.90;;;;;;4755213;30;20119;-95
2021/01/06 07:20:48;;;;;;;1999.90;999.90;;;3.00;99.90;;;;;;4768113;30;20055;-94
2021/01/06 07:23:21;;;;;;;1999.90;999.90;;;3.00;99.90;;;;;;4762139;30;20055;-94
2021/01/06 07:26:02;;;;;;;1999.90;999.90;;;3.10;99.90;;;;;;4772997;30;20065;-95
2021/01/06 07:28:30;;;;;;;1999.90;999.90;;;3.10;99.90;;;;;;4773459;30;20139;-94
2021/01/06 07:31:12;;;;;;;1999.90;999.90;;;3.10;99.90;;;;;;4775650;30;20154;-95
2021/01/06 07:33:43;;;;;;;1999.90;999.90;;;3.10;99.90;;;;;;4765303;30;20060;-94
2021/01/06 07:36:17;;;;;;;1999.90;999.90;;;3.20;99.90;;;;;;4768021;30;20060;-95
2021/01/06 07:38:47;;;;;;;1999.90;999.90;;;3.20;99.90;;;;;;4760654;30;20055;-95
2021/01/06 07:41:19;;;;;;;1999.90;999.90;;;3.20;99.90;;;;;;4759992;30;20056;-94
2021/01/06 07:44:21;;;;;;;1999.90;999.90;;;3.20;99.90;;;;;;4757896;30;20047;-94
2021/01/06 07:47:21;;;;;;;1999.90;999.90;;;3.20;99.90;;;;;;4758964;30;20078;-93
2021/01/06 07:49:58;;;;;;;1999.90;999.90;;;3.10;99.90;;;;;;4767752;30;20066;-93
2021/01/06 07:52:46;;;;;;;1999.90;999.90;;;3.10;99.90;;;;;;4767329;30;20117;-93
2021/01/06 07:55:36;;;;;;;1999.90;999.90;;;3.10;99.90;;;;;;4786754;30;20066;-93
2021/01/06 07:58:45;;;;;;;1999.90;999.90;;;3.10;99.90;;;;;;4783811;30;20086;-93
2021/01/06 08:02:00;;;;;;;1999.90;999.90;;;3.20;99.90;;;;;;4766540;30;20509;-95
2021/01/06 08:04:52;;;;;;;1999.90;999.90;;;3.20;99.90;;;;;;4752265;30;20064;-95
2021/01/06 08:07:51;;;;;;;1999.90;999.90;;;3.10;99.90;;;;;;4617689;30;20059;-95
2021/01/06 08:11:41;;;;;;;1999.90;999.90;;;3.20;99.90;;;;;;4596191;31;20222;-94
2021/01/06 08:14:45;;;;;;;1999.90;999.90;;;3.20;99.90;;;;;;4598679;31;20063;-94
2021/01/06 08:18:09;;;;;;;1999.90;999.90;;;3.10;99.90;;;;;;4615449;31;20063;-94
2021/01/06 08:21:42;;;;;;;1999.90;999.90;;;3.10;99.90;;;;;;4561427;31;20613;-95
2021/01/06 08:25:22;;;;;;;1999.90;999.90;;;3.10;99.90;;;;;;4660463;30;20400;-96
2021/01/06 08:27:54;;;;;;;1999.90;999.90;;;3.10;99.90;;;;;;4665733;30;20066;-96
2021/01/06 08:31:08;;;;;;;1999.90;999.90;;;3.10;99.90;;;;;;4757283;30;20070;-95
2021/01/06 08:37:55;;;;;;;1999.90;999.90;;;3.10;99.90;;;;;;5214665;27;20484;-94
2021/01/06 08:41:30;;;;;;;1999.90;999.90;;;3.10;99.90;;;;;;5110248;28;20048;-95
2021/01/06 08:44:57;;;;;;;1999.90;999.90;;;3.20;99.90;;;;;;5108682;28;20091;-95
2021/01/06 08:47:49;;;;;;;1999.90;999.90;;;3.20;99.90;;;;;;5029884;28;20050;-95
2021/01/06 08:50:52;;;;;;;1999.90;999.90;;;3.20;99.90;;;;;;5029472;28;20050;-95
2021/01/06 08:53:50;;;;;;;1999.90;999.90;;;3.20;99.90;;;;;;4986972;28;20064;-95
2021/01/06 08:56:39;;;;;;;1999.90;999.90;;;3.20;99.90;;;;;;5029350;28;20440;-95
2021/01/06 09:00:29;;;;;;;1999.90;999.90;;;3.20;99.90;;;;;;5018126;28;20111;-94
2021/01/06 09:07:36;;;;;;;;;;;3.20;99.90;;;;;;5029526;28;20069;-95
2021/01/06 09:11:00;;;;;;;1999.90;999.90;;;3.20;99.90;;;;;;5030595;28;19928;-94
2021/01/06 09:18:06;;;;;;;1999.90;999.90;;;3.30;99.90;;;;;;5121307;27;20597;-94
2021/01/06 09:21:44;;;;;;;1999.90;999.90;;;3.30;99.90;;;;;;5189671;27;20050;-96
2021/01/06 09:32:17;;;;;;;1999.90;999.90;;;3.40;99.90;;;;;;5150364;27;20083;-94
2021/01/06 09:39:05;;;;;;;1999.90;999.90;;;3.40;99.90;;;;;;5149565;27;20297;-96
2021/01/06 09:41:46;;;;;;;1999.90;999.90;;;3.50;99.90;;;;;;5149994;27;20051;-93
2021/01/06 09:44:15;;;;;;;1999.90;999.90;;;3.40;99.90;;;;;;5149212;27;20099;-94
2021/01/06 09:46:55;;;;;;;1999.90;999.90;;;3.40;99.90;;;;;;5133427;27;20130;-93
2021/01/06 09:49:39;;;;;;;1999.90;999.90;;;3.50;99.90;;;;;;5144635;27;20085;-94
2021/01/06 09:52:23;;;;;;;1999.90;999.90;;;3.50;99.90;;;;;;5125806;27;20047;-93
2021/01/06 09:54:56;;;;;;;1999.90;999.90;;;3.50;99.90;;;;;;5124172;27;20051;-93
2021/01/06 09:57:25;;;;;;;1999.90;999.90;;;3.50;99.90;;;;;;5137765;27;20050;-95
2021/01/06 10:00:22;;;;;;;1999.90;999.90;;;3.50;99.90;;;;;;5133264;27;20054;-94
2021/01/06 10:03:07;;;;;;;1999.90;999.90;;;3.60;99.90;;;;;;5117858;27;20054;-94
2021/01/06 10:06:26;;;;;;;1999.90;999.90;;;3.60;99.90;;;;;;5137744;27;20048;-95
2021/01/06 10:16:56;;;;;;;1999.90;999.90;;;3.70;99.90;;;;;;5029097;27;20087;-94
2021/01/06 10:22:54;;;;;;;1999.90;999.90;;;3.70;99.90;;;;;;5133460;27;20413;-93
2021/01/06 10:29:41;;;;;;;1999.90;999.90;;;3.70;99.90;;;;;;5117780;27;20060;-93
2021/01/06 10:32:49;;;;;;;1999.90;999.90;;;3.70;99.90;;;;;;5104087;27;20444;-93
2021/01/06 10:43:21;;;;;;;1999.90;999.90;;;3.80;99.90;;;;;;5079618;28;20079;-95
2021/01/06 10:46:05;;;;;;;1999.90;999.90;;;3.90;99.90;;;;;;5095692;28;20070;-95
2021/01/06 10:48:55;;;;;;;1999.90;999.90;;;3.90;99.90;;;;;;5102521;28;20054;-94
2021/01/06 10:52:26;;;;;;;1999.90;999.90;;;3.90;99.90;;;;;;5125442;28;20058;-94
2021/01/06 11:06:54;;;;;;;1999.90;999.90;;;4.00;99.90;;;;;;5069098;28;20048;-94
2021/01/06 11:17:45;;;;;;;1999.90;999.90;;;4.00;99.90;;;;;;4898001;29;20068;-95
2021/01/06 11:20:51;;;;;;;;;;;;;;;;;;;;;
2021/01/06 11:42:55;;;;;;;1999.90;999.90;;;4.10;99.90;;;;;;5006466;28;20041;-96
2021/01/06 11:45:59;;;;;;;1999.90;999.90;;;4.10;99.90;;;;;;5005348;28;20046;-96
2021/01/06 11:48:38;;;;;;;1999.90;999.90;;;4.10;99.90;;;;;;5010023;28;20114;-96
2021/01/06 11:51:38;;;;;;;1999.90;999.90;;;4.10;99.90;;;;;;5005616;28;20060;-96
2021/01/06 12:08:34;;;;;;;1999.90;999.90;;;4.10;99.90;;;;;;5042669;28;20036;-96
2021/01/06 12:11:29;;;;;;;1999.90;999.90;;;4.10;99.90;;;;;;5122639;27;20077;-96
2021/01/06 12:14:29;;;;;;;1999.90;999.90;;;4.10;99.90;;;;;;5151417;27;20041;-96
2021/01/06 12:18:03;;;;;;;1999.90;999.90;;;4.10;99.90;;;;;;5150648;27;20051;-96
2021/01/06 12:20:38;;;;;;;1999.90;999.90;;;4.20;99.90;;;;;;5140059;27;20062;-96
2021/01/06 12:23:44;;;;;;;1999.90;999.90;;;4.20;99.90;;;;;;5139739;27;20476;-96
2021/01/06 12:26:39;;;;;;;1999.90;999.90;;;4.30;99.90;;;;;;5140562;27;20504;-96
2021/01/06 12:29:22;;;;;;;1999.90;999.90;;;4.20;99.90;;;;;;5139776;27;20078;-96
2021/01/06 12:32:13;;;;;;;1999.90;999.90;;;4.30;99.90;;;;;;5139184;27;20054;-96
2021/01/06 12:34:45;;;;;;;1999.90;999.90;;;4.30;99.90;;;;;;5156536;27;20062;-96
2021/01/06 12:37:35;;;;;;;1999.90;999.90;;;4.30;99.90;;;;;;5160469;27;20119;-96
2021/01/06 12:40:29;;;;;;;1999.90;999.90;;;4.20;99.90;;;;;;5157088;27;20057;-96
2021/01/06 12:43:47;;;;;;;1999.90;999.90;;;4.30;99.90;;;;;;5164566;27;20504;-96
2021/01/06 12:55:03;;;;;;;1999.90;999.90;;;4.30;99.90;;;;;;4932807;29;20050;-96
2021/01/06 14:40:26;;;;;;;1999.90;999.90;;;4.10;99.90;;;;;;4990590;28;20050;-93
2021/01/06 14:43:45;;;;;;;1999.90;999.90;;;4.00;99.90;;;;;;5031418;28;20053;-92
2021/01/06 14:46:59;;;;;;;1999.90;999.90;;;4.00;99.90;;;;;;5047021;28;20052;-92
2021/01/06 14:49:33;;;;;;;1999.90;999.90;;;4.00;99.90;;;;;;5033412;28;20059;-93
2021/01/06 14:52:17;;;;;;;1999.90;999.90;;;4.00;99.90;;;;;;5044740;28;20053;-93
2021/01/06 14:55:03;;;;;;;1999.90;999.90;;;4.00;99.90;;;;;;5030564;28;20045;-93
2021/01/06 15:01:21;;;;;;;1999.90;999.90;;;4.00;99.90;;;;;;4987165;28;20051;-93
2021/01/06 15:08:06;;;;;;;1999.90;999.90;;;3.90;99.90;;;;;;4949704;28;20103;-92
2021/01/06 15:10:36;;;;;;;1999.90;999.90;;;3.90;99.90;;;;;;4951012;28;20058;-93
2021/01/06 15:13:54;;;;;;;1999.90;999.90;;;3.90;99.90;;;;;;4996638;28;20064;-95
2021/01/06 15:20:25;;;;;;;1999.90;999.90;;;3.90;99.90;;;;;;4974678;28;20405;-93
2021/01/06 15:23:00;;;;;;;1999.90;999.90;;;3.80;99.90;;;;;;4988061;28;20054;-93
2021/01/06 15:25:45;;;;;;;;;;;3.90;99.90;;;;;;5002106;28;20041;-95
2021/01/06 15:29:19;;;;;;;1999.90;999.90;;;3.80;99.90;;;;;;5037080;28;20011;-95
2021/01/06 15:36:56;;;;;;;1999.90;999.90;;;3.80;99.90;;;;;;5035975;28;20044;-95
2021/01/06 15:39:56;;;;;;;1999.90;999.90;;;3.80;99.90;;;;;;5035686;28;20050;-95
2021/01/06 15:42:34;;;;;;;1999.90;999.90;;;3.80;99.90;;;;;;5036251;28;20602;-94
2021/01/06 17:58:41;;;;;;;1999.90;999.90;;;3.50;99.90;;;;;;4922753;29;20380;-96
2021/01/06 18:01:17;;;;;;;1999.90;999.90;;;3.50;99.90;;;;;;4922104;29;20491;-96
2021/01/06 18:03:50;;;;;;;1999.90;999.90;;;3.50;99.90;;;;;;4922417;29;20402;-96
2021/01/06 18:06:25;;;;;;;1999.90;999.90;;;3.50;99.90;;;;;;4923665;29;20052;-95
2021/01/06 18:08:52;;;;;;;;;;;3.50;99.90;;;;;;4922927;29;20071;-96
2021/01/06 18:11:32;;;;;;;1999.90;999.90;;;3.40;99.90;;;;;;4921848;29;19923;-96
2021/01/06 18:14:02;;;;;;;1999.90;999.90;;;3.50;99.90;;;;;;4922906;29;20062;-96
2021/01/06 18:16:32;;;;;;;1999.90;999.90;;;3.50;99.90;;;;;;4923553;29;20048;-96
2021/01/06 18:19:01;;;;;;;1999.90;999.90;;;3.50;99.90;;;;;;4921239;29;20063;-96
2021/01/06 18:21:36;;;;;;;1999.90;999.90;;;3.50;99.90;;;;;;4922992;29;20056;-96
2021/01/06 18:24:17;;;;;;;1999.90;999.90;;;3.50;99.90;;;;;;4922494;29;20058;-95
2021/01/06 18:26:59;;;;;;;1999.90;999.90;;;3.50;99.90;;;;;;4922156;29;20052;-96
2021/01/06 18:29:32;;;;;;;1999.90;999.90;;;3.50;99.90;;;;;;4922320;29;20391;-96
2021/01/06 18:32:16;;;;;;;1999.90;999.90;;;3.50;99.90;;;;;;4921871;29;20161;-96
2021/01/06 18:34:45;;;;;;;1999.90;999.90;;;3.40;99.90;;;;;;4922140;29;20056;-96
2021/01/06 18:37:16;;;;;;;1999.90;999.90;;;3.30;99.90;;;;;;4922061;29;20044;-96
2021/01/06 18:39:47;;;;;;;1999.90;999.90;;;3.30;99.90;;;;;;4921850;29;20058;-96
2021/01/06 18:42:28;;;;;;;1999.90;999.90;;;3.30;99.90;;;;;;4921564;29;20063;-96
2021/01/06 18:45:07;;;;;;;1999.90;999.90;;;3.30;99.90;;;;;;4922352;29;20063;-96
2021/01/06 18:47:46;;;;;;;1999.90;999.90;;;3.30;99.90;;;;;;4922860;29;20055;-96
2021/01/06 18:50:29;;;;;;;1999.90;999.90;;;3.30;99.90;;;;;;4922260;29;20559;-96
2021/01/06 18:53:13;;;;;;;1999.90;999.90;;;3.30;99.90;;;;;;4921509;29;20472;-96
2021/01/06 18:55:43;;;;;;;1999.90;999.90;;;3.30;99.90;;;;;;4922484;29;20055;-95
2021/01/06 18:58:22;;;;;;;1999.90;999.90;;;3.30;99.90;;;;;;4921787;29;20066;-96
2021/01/06 19:00:54;;;;;;;1999.90;999.90;;;3.30;99.90;;;;;;4921542;29;20052;-96
2021/01/06 19:03:28;;;;;;;1999.90;999.90;;;3.30;99.90;;;;;;4920946;29;20567;-96
2021/01/06 19:05:57;;;;;;;1999.90;999.90;;;3.30;99.90;;;;;;4920804;29;20135;-96
2021/01/06 19:08:28;;;;;;;1999.90;999.90;;;3.30;99.90;;;;;;4920562;29;20051;-96
2021/01/06 19:10:58;;;;;;;1999.90;999.90;;;3.30;99.90;;;;;;4921177;29;20135;-95
2021/01/06 19:13:25;;;;;;;1999.90;999.90;;;3.30;99.90;;;;;;4921361;29;20055;-96
2021/01/06 19:15:54;;;;;;;1999.90;999.90;;;3.30;99.90;;;;;;4920406;29;20503;-96
2021/01/06 19:18:25;;;;;;;1999.90;999.90;;;3.30;99.90;;;;;;4920169;29;20052;-96
2021/01/06 19:20:57;;;;;;;1999.90;999.90;;;3.30;99.90;;;;;;4919652;29;20056;-96
2021/01/06 19:23:29;;;;;;;1999.90;999.90;;;3.30;99.90;;;;;;4919582;29;20079;-96